createdAt,value
2023-01-18T00:02:58.037Z,29.97
2023-01-18T00:06:02.378Z,31.33
2023-01-18T00:09:05.147Z,28.00
2023-01-18T00:12:07.878Z,25.75
2023-01-18T00:15:11.287Z,27.33
2023-01-18T00:18:14.160Z,27.03
2023-01-18T00:21:16.955Z,24.67
2023-01-18T00:24:22.918Z,25.42
2023-01-18T00:27:25.807Z,25.27
2023-01-18T00:30:29.954Z,26.17
2023-01-18T00:33:32.664Z,27.33
2023-01-18T00:36:35.660Z,20.77
2023-01-18T00:39:38.595Z,18.25
2023-01-18T00:43:01.043Z,18.42
2023-01-18T00:46:05.827Z,20.40
2023-01-18T00:49:08.720Z,17.93
2023-01-18T00:52:11.485Z,19.08
2023-01-18T00:55:16.271Z,16.00
2023-01-18T00:58:19.562Z,20.30
2023-01-18T01:01:22.490Z,21.08
2023-01-18T01:04:43.813Z,21.03
2023-01-18T01:07:49.524Z,19.33
2023-01-18T01:11:10.690Z,16.98
2023-01-18T01:14:31.956Z,17.30
2023-01-18T01:17:55.191Z,22.13
2023-01-18T01:21:16.387Z,21.03
2023-01-18T01:24:37.755Z,21.35
2023-01-18T01:27:40.610Z,21.13
2023-01-18T01:30:44.758Z,19.73
2023-01-18T01:33:50.913Z,21.33
2023-01-18T01:36:53.651Z,19.50
2023-01-18T01:39:56.757Z,22.77
2023-01-18T01:42:59.823Z,19.40
2023-01-18T01:46:04.102Z,20.83
2023-01-18T01:49:12.873Z,20.70
2023-01-18T01:52:28.220Z,20.53
2023-01-18T01:55:37.913Z,17.17
2023-01-18T01:58:41.889Z,20.98
2023-01-18T02:01:46.333Z,21.50
2023-01-18T02:04:53.832Z,29.10
2023-01-18T02:08:00.937Z,28.87
2023-01-18T02:11:03.835Z,29.90
2023-01-18T02:14:15.925Z,26.05
2023-01-18T02:17:56.214Z,32.38
2023-01-18T02:21:19.768Z,31.73
2023-01-18T02:24:46.500Z,24.87
2023-01-18T02:28:06.301Z,31.15
2023-01-18T02:31:21.503Z,31.25
2023-01-18T02:34:39.387Z,27.67
2023-01-18T02:37:54.296Z,28.87
2023-01-18T02:41:05.849Z,26.10
2023-01-18T02:44:27.123Z,27.60
2023-01-18T02:47:30.836Z,30.80
2023-01-18T02:50:34.108Z,34.85
2023-01-18T02:53:46.389Z,44.13
2023-01-18T02:56:56.817Z,43.77
2023-01-18T03:00:02.963Z,46.45
2023-01-18T03:03:11.044Z,48.03
2023-01-18T03:06:14.442Z,44.05
2023-01-18T03:09:21.739Z,36.40
2023-01-18T03:13:00.215Z,38.77
2023-01-18T03:16:21.225Z,49.92
2023-01-18T03:20:04.145Z,48.85
2023-01-18T03:23:38.887Z,44.03
2023-01-18T03:26:47.235Z,37.65
2023-01-18T03:30:08.722Z,38.07
2023-01-18T03:33:31.458Z,39.75
2023-01-18T03:36:40.277Z,35.05
2023-01-18T03:39:46.798Z,39.25
2023-01-18T03:43:07.854Z,34.50
2023-01-18T03:46:12.632Z,34.43
2023-01-18T03:49:16.725Z,37.22
2023-01-18T03:52:31.932Z,50.80
2023-01-18T03:55:44.014Z,41.13
2023-01-18T03:58:49.516Z,41.70
2023-01-18T04:01:53.024Z,37.47
2023-01-18T04:04:57.805Z,46.97
2023-01-18T04:08:00.718Z,51.90
2023-01-18T04:11:03.563Z,58.17
2023-01-18T04:14:06.416Z,50.47
2023-01-18T04:17:09.211Z,46.27
2023-01-18T04:20:12.398Z,41.95
2023-01-18T04:23:15.672Z,42.38
2023-01-18T04:26:19.421Z,58.55
2023-01-18T04:29:23.342Z,65.50
2023-01-18T04:32:26.185Z,52.13
2023-01-18T04:35:28.987Z,50.78
2023-01-18T04:38:31.908Z,40.72
2023-01-18T04:41:35.066Z,24.95
2023-01-18T04:44:38.220Z,7.80
2023-01-18T04:47:41.075Z,5.23
2023-01-18T04:50:46.660Z,4.00
2023-01-18T04:53:49.660Z,5.32
2023-01-18T04:56:52.676Z,3.53
2023-01-18T04:59:55.531Z,1.70
2023-01-18T05:02:58.532Z,2.67
2023-01-18T05:06:01.521Z,8.55
2023-01-18T05:09:04.418Z,1.63
2023-01-18T05:12:07.392Z,5.63
2023-01-18T05:15:10.653Z,3.30
2023-01-18T05:18:13.398Z,2.43
2023-01-18T05:21:16.218Z,1.85
2023-01-18T05:24:18.950Z,2.67
2023-01-18T05:27:21.772Z,3.00
2023-01-18T05:30:24.644Z,2.57
2023-01-18T05:33:27.589Z,1.17
2023-01-18T05:36:30.503Z,1.73
2023-01-18T05:39:33.639Z,2.35
2023-01-18T05:42:36.586Z,13.55
2023-01-18T05:45:39.896Z,21.27
2023-01-18T05:48:42.880Z,29.70
2023-01-18T05:51:45.652Z,18.33
2023-01-18T05:54:48.508Z,17.33
2023-01-18T05:57:51.307Z,12.82
2023-01-18T06:00:54.603Z,10.23
2023-01-18T06:03:57.559Z,12.63
2023-01-18T06:07:00.471Z,20.88
2023-01-18T06:10:03.755Z,19.83
2023-01-18T06:13:06.980Z,22.88
2023-01-18T06:16:12.125Z,11.37
2023-01-18T06:19:14.932Z,4.53
2023-01-18T06:22:17.798Z,5.13
2023-01-18T06:25:20.608Z,6.38
2023-01-18T06:28:23.472Z,12.80
2023-01-18T06:31:26.348Z,12.80
2023-01-18T06:34:30.441Z,12.77
2023-01-18T06:37:33.733Z,7.13
2023-01-18T06:40:37.172Z,5.38
2023-01-18T06:43:40.064Z,28.95
2023-01-18T06:46:46.108Z,27.93
2023-01-18T06:49:49.057Z,16.40
2023-01-18T06:52:52.271Z,28.58
2023-01-18T06:55:58.808Z,25.05
2023-01-18T06:59:04.045Z,15.80
2023-01-18T07:02:07.951Z,26.63
2023-01-18T07:05:11.339Z,35.07
2023-01-18T07:08:14.634Z,50.50
2023-01-18T07:11:18.905Z,50.35
2023-01-18T07:14:21.939Z,32.92
2023-01-18T07:17:24.766Z,31.10
2023-01-18T07:20:29.799Z,14.47
2023-01-18T07:23:35.564Z,10.75
2023-01-18T07:26:41.266Z,7.32
2023-01-18T07:29:44.291Z,8.23
2023-01-18T07:32:49.645Z,5.13
2023-01-18T07:35:54.287Z,5.07
2023-01-18T07:38:57.611Z,5.88
2023-01-18T07:42:02.002Z,11.23
2023-01-18T07:45:08.881Z,6.78
2023-01-18T07:48:11.779Z,9.33
2023-01-18T07:51:15.840Z,6.60
2023-01-18T07:54:19.321Z,3.85
2023-01-18T07:57:22.232Z,11.32
2023-01-18T08:00:26.046Z,23.42
2023-01-18T08:03:32.843Z,15.97
2023-01-18T08:06:39.676Z,9.33
2023-01-18T08:09:47.742Z,4.10
2023-01-18T08:12:52.114Z,5.55
2023-01-18T08:15:56.918Z,5.40
2023-01-18T08:19:00.331Z,5.28
2023-01-18T08:22:03.720Z,4.13
2023-01-18T08:25:07.174Z,3.80
2023-01-18T08:28:11.268Z,4.90
2023-01-18T08:31:18.836Z,3.90
2023-01-18T08:34:31.870Z,3.88
2023-01-18T08:37:36.421Z,5.33
2023-01-18T08:40:41.059Z,4.95
2023-01-18T08:43:44.403Z,4.75
2023-01-18T08:46:50.078Z,4.32
2023-01-18T08:49:53.141Z,5.90
2023-01-18T08:52:57.410Z,5.07
2023-01-18T08:56:04.700Z,5.05
2023-01-18T08:59:08.810Z,5.82
2023-01-18T09:02:12.466Z,5.22
2023-01-18T09:05:15.858Z,2.95
2023-01-18T09:08:19.039Z,6.70
2023-01-18T09:11:25.013Z,4.93
2023-01-18T09:14:27.822Z,14.55
2023-01-18T09:17:31.136Z,6.40
2023-01-18T09:20:36.690Z,1.85
2023-01-18T09:23:40.807Z,3.97
2023-01-18T09:26:45.211Z,4.18
2023-01-18T09:29:52.508Z,4.65
2023-01-18T09:32:57.745Z,2.65
2023-01-18T09:36:07.852Z,5.07
2023-01-18T09:39:10.696Z,6.23
2023-01-18T09:42:28.790Z,5.75
2023-01-18T09:45:35.148Z,4.07
2023-01-18T09:48:43.050Z,4.18
2023-01-18T09:52:06.070Z,4.60
2023-01-18T09:55:15.194Z,5.63
2023-01-18T09:58:39.532Z,2.97
2023-01-18T10:01:42.970Z,37.55
2023-01-18T10:04:53.121Z,14.15
2023-01-18T10:08:25.587Z,12.88
2023-01-18T10:11:45.155Z,8.00
2023-01-18T10:14:57.868Z,6.40
2023-01-18T10:18:01.551Z,3.95
2023-01-18T10:21:07.662Z,3.80
2023-01-18T10:24:42.919Z,2.80
2023-01-18T10:28:25.435Z,6.10
2023-01-18T10:31:53.257Z,3.10
2023-01-18T10:34:57.995Z,3.10
2023-01-18T10:38:12.356Z,4.78
2023-01-18T10:41:29.502Z,5.22
2023-01-18T10:44:32.987Z,4.70
2023-01-18T10:47:35.876Z,5.65
2023-01-18T10:50:53.248Z,3.28
2023-01-18T10:54:00.099Z,5.18
2023-01-18T10:57:04.769Z,3.35
2023-01-18T11:00:22.603Z,4.30
2023-01-18T11:03:28.631Z,3.22
2023-01-18T11:06:53.735Z,2.92
2023-01-18T11:10:01.708Z,7.43
2023-01-18T11:13:24.698Z,3.92
2023-01-18T11:16:29.276Z,5.03
2023-01-18T11:19:34.115Z,6.80
2023-01-18T11:23:02.474Z,9.20
2023-01-18T11:26:15.239Z,9.50
2023-01-18T11:29:19.019Z,3.38
2023-01-18T11:32:26.981Z,2.73
2023-01-18T11:35:34.469Z,4.40
2023-01-18T11:38:37.390Z,2.38
2023-01-18T11:41:40.365Z,3.88
2023-01-18T11:45:07.817Z,2.45
2023-01-18T11:48:26.473Z,3.20
2023-01-18T11:51:39.241Z,3.08
2023-01-18T11:54:52.879Z,1.40
2023-01-18T11:57:55.959Z,2.55
2023-01-18T12:01:07.435Z,1.73
2023-01-18T12:04:55.106Z,2.27
2023-01-18T12:08:24.600Z,2.45
2023-01-18T12:11:46.200Z,5.78
2023-01-18T12:15:18.603Z,2.38
2023-01-18T12:18:24.767Z,3.25
2023-01-18T12:22:00.305Z,2.97
2023-01-18T12:25:16.367Z,2.53
2023-01-18T12:28:28.374Z,4.00
2023-01-18T12:31:58.931Z,4.30
2023-01-18T12:35:35.801Z,3.50
2023-01-18T12:38:49.464Z,6.07
2023-01-18T12:42:10.176Z,4.88
2023-01-18T12:45:20.685Z,3.17
2023-01-18T12:48:54.850Z,1.83
2023-01-18T12:52:17.724Z,3.92
2023-01-18T12:55:25.800Z,1.77
2023-01-18T12:58:28.802Z,2.75
2023-01-18T13:01:53.561Z,9.55
2023-01-18T13:05:05.288Z,5.65
2023-01-18T13:08:27.962Z,5.38
2023-01-18T13:11:35.719Z,10.53
2023-01-18T13:14:38.612Z,9.80
2023-01-18T13:17:56.982Z,14.63
2023-01-18T13:21:19.289Z,12.05
2023-01-18T13:24:28.121Z,9.45
2023-01-18T13:27:31.726Z,13.07
2023-01-18T13:30:57.252Z,13.20
2023-01-18T13:34:00.655Z,9.70
2023-01-18T13:37:14.837Z,8.90
2023-01-18T13:40:35.267Z,13.43
2023-01-18T13:43:37.975Z,17.80
2023-01-18T13:46:42.626Z,14.52
2023-01-18T13:49:46.792Z,25.77
2023-01-18T13:53:15.466Z,27.35
2023-01-18T13:56:23.833Z,17.25
2023-01-18T13:59:31.938Z,19.40
2023-01-18T14:02:44.240Z,18.15
2023-01-18T14:05:49.145Z,33.15
2023-01-18T14:08:55.587Z,27.50
2023-01-18T14:11:59.530Z,25.38
2023-01-18T14:15:02.752Z,37.03
2023-01-18T14:18:24.837Z,25.80
2023-01-18T14:22:06.318Z,16.15
2023-01-18T14:25:27.304Z,14.57
2023-01-18T14:28:48.225Z,13.68
2023-01-18T14:31:56.129Z,29.93
2023-01-18T14:35:03.129Z,44.42
2023-01-18T14:38:18.881Z,35.55
2023-01-18T14:41:21.991Z,28.85
2023-01-18T14:44:31.307Z,34.08
2023-01-18T14:47:35.014Z,47.50
2023-01-18T14:50:41.930Z,38.88
2023-01-18T14:53:48.502Z,33.75
2023-01-18T14:57:00.039Z,23.05
2023-01-18T15:00:17.261Z,27.27
2023-01-18T15:03:28.975Z,25.50
2023-01-18T15:06:34.746Z,21.77
2023-01-18T15:09:39.884Z,23.20
2023-01-18T15:12:48.597Z,28.90
2023-01-18T15:15:51.566Z,30.65
2023-01-18T15:18:56.109Z,39.07
2023-01-18T15:22:01.944Z,36.47
2023-01-18T15:25:14.653Z,40.47
2023-01-18T15:28:23.916Z,30.13
2023-01-18T15:31:27.900Z,58.97
2023-01-18T15:34:36.880Z,66.73
2023-01-18T15:37:39.900Z,61.42
2023-01-18T15:40:54.303Z,75.82
2023-01-18T15:43:58.473Z,108.15
2023-01-18T15:47:02.459Z,58.10
2023-01-18T15:50:18.711Z,60.33
2023-01-18T15:53:35.485Z,101.43
2023-01-18T15:56:38.590Z,76.40
2023-01-18T15:59:42.864Z,98.47
2023-01-18T16:02:46.147Z,117.93
2023-01-18T16:06:11.451Z,117.20
2023-01-18T16:09:16.120Z,140.45
2023-01-18T16:12:34.940Z,157.98
2023-01-18T16:15:38.300Z,226.25
2023-01-18T16:18:48.756Z,475.10
2023-01-18T16:22:00.136Z,291.47
2023-01-18T16:25:21.289Z,155.98
2023-01-18T16:28:25.002Z,140.98
2023-01-18T16:31:29.108Z,221.57
2023-01-18T16:34:32.173Z,250.88
2023-01-18T16:37:35.364Z,231.97
2023-01-18T16:40:40.197Z,206.93
2023-01-18T16:43:44.180Z,196.95
2023-01-18T16:46:48.434Z,175.07
2023-01-18T16:49:51.499Z,159.38
2023-01-18T16:52:54.661Z,124.43
2023-01-18T16:55:57.622Z,68.68
2023-01-18T16:59:20.747Z,69.47
2023-01-18T17:02:32.562Z,84.45
2023-01-18T17:07:15.041Z,75.03
2023-01-18T17:10:43.468Z,75.77
2023-01-18T17:13:47.919Z,102.68
2023-01-18T17:16:51.093Z,111.72
2023-01-18T17:19:54.603Z,40.90
2023-01-18T17:22:57.795Z,28.63
2023-01-18T17:26:00.990Z,22.47
2023-01-18T17:29:05.295Z,17.27
2023-01-18T17:32:10.415Z,23.00
2023-01-18T17:35:15.559Z,33.50
2023-01-18T17:38:25.081Z,24.75
2023-01-18T17:41:29.747Z,14.97
2023-01-18T17:44:37.429Z,11.93
2023-01-18T17:47:42.678Z,14.95
2023-01-18T17:50:45.672Z,14.57
2023-01-18T17:53:49.044Z,9.57
2023-01-18T17:56:53.307Z,7.10
2023-01-18T17:59:56.752Z,8.32
2023-01-18T18:03:01.217Z,9.98
2023-01-18T18:06:05.893Z,8.55
2023-01-18T18:09:08.970Z,9.75
2023-01-18T18:12:13.097Z,6.17
2023-01-18T18:18:36.867Z,4.10
2023-01-18T18:21:40.005Z,5.15
2023-01-18T18:24:43.071Z,6.30
2023-01-18T18:27:47.296Z,4.67
2023-01-18T18:30:51.681Z,6.68
2023-01-18T18:33:54.639Z,6.53
2023-01-18T18:36:57.726Z,4.88
2023-01-18T18:43:21.662Z,4.93
2023-01-18T18:49:46.718Z,7.03
2023-01-18T18:52:49.816Z,8.18
2023-01-18T18:55:58.923Z,9.02
2023-01-18T18:59:02.425Z,5.67
2023-01-18T19:02:05.850Z,6.90
2023-01-18T19:05:10.821Z,5.88
2023-01-18T19:08:13.737Z,6.90
2023-01-18T19:11:17.767Z,5.67
2023-01-18T19:14:20.829Z,5.00
2023-01-18T19:17:30.208Z,5.32
2023-01-18T19:20:33.606Z,4.82
2023-01-18T19:23:36.927Z,4.72
2023-01-18T19:26:40.483Z,3.80
2023-01-18T19:29:43.707Z,3.33
2023-01-18T19:32:48.544Z,4.43
2023-01-18T19:35:51.500Z,6.40
2023-01-18T19:38:59.766Z,6.10
2023-01-18T19:42:03.422Z,6.13
2023-01-18T19:45:08.225Z,5.40
2023-01-18T19:48:12.706Z,5.53
2023-01-18T19:51:22.655Z,5.10
2023-01-18T19:54:26.488Z,6.20
2023-01-18T19:57:29.889Z,6.20
2023-01-18T20:00:34.289Z,6.47
2023-01-18T20:03:37.737Z,7.38
2023-01-18T20:06:43.616Z,6.95
2023-01-18T20:09:47.530Z,9.02
2023-01-18T20:12:50.657Z,5.75
2023-01-18T20:15:54.717Z,5.30
2023-01-18T20:18:58.200Z,6.80
2023-01-18T20:22:01.296Z,4.80
2023-01-18T20:25:04.613Z,5.60
2023-01-18T20:28:10.102Z,5.80
2023-01-18T20:31:13.961Z,5.20
2023-01-18T20:34:17.093Z,6.10
2023-01-18T20:37:20.565Z,6.45
2023-01-18T20:40:24.998Z,7.13
2023-01-18T20:43:27.959Z,8.73
2023-01-18T20:46:30.873Z,11.70
2023-01-18T20:49:38.282Z,10.05
2023-01-18T20:52:42.267Z,10.60
2023-01-18T20:55:45.619Z,9.98
2023-01-18T20:58:49.031Z,9.13
2023-01-18T21:01:53.193Z,11.07
2023-01-18T21:04:56.670Z,12.23
2023-01-18T21:08:00.051Z,10.07
2023-01-18T21:11:03.280Z,9.32
2023-01-18T21:14:06.432Z,10.07
2023-01-18T21:17:09.528Z,10.13
2023-01-18T21:20:12.800Z,11.57
2023-01-18T21:23:16.834Z,10.13
2023-01-18T21:26:20.012Z,9.43
2023-01-18T21:29:23.176Z,13.73
2023-01-18T21:32:26.120Z,9.23
2023-01-18T21:35:30.031Z,11.52
2023-01-18T21:38:33.128Z,11.55
2023-01-18T21:41:54.508Z,11.60
2023-01-18T21:45:15.685Z,9.33
2023-01-18T21:48:18.860Z,12.90
2023-01-18T21:51:40.229Z,9.70
2023-01-18T21:54:43.176Z,10.07
2023-01-18T21:58:05.951Z,11.20
2023-01-18T22:01:17.939Z,14.70
2023-01-18T22:04:39.383Z,16.17
2023-01-18T22:07:42.871Z,12.88
2023-01-18T22:10:47.588Z,11.40
2023-01-18T22:13:50.488Z,10.52
2023-01-18T22:16:53.891Z,8.00
2023-01-18T22:19:57.089Z,10.37
2023-01-18T22:23:06.233Z,9.88
2023-01-18T22:26:09.008Z,12.35
2023-01-18T22:29:12.666Z,14.38
2023-01-18T22:32:16.504Z,10.23
2023-01-18T22:35:19.369Z,11.23
2023-01-18T22:38:22.206Z,10.07
2023-01-18T22:41:28.656Z,12.73
2023-01-18T22:44:32.939Z,13.20
2023-01-18T22:47:35.785Z,10.10
2023-01-18T22:50:38.612Z,10.13
2023-01-18T22:53:41.506Z,9.13
2023-01-18T22:56:44.288Z,9.27
2023-01-18T22:59:48.152Z,9.20
2023-01-18T23:02:52.007Z,10.43
2023-01-18T23:05:59.708Z,11.30
2023-01-18T23:09:02.757Z,9.15
2023-01-18T23:12:05.836Z,10.15
2023-01-18T23:15:29.265Z,9.52
2023-01-18T23:18:32.436Z,7.53
2023-01-18T23:21:35.267Z,6.30
2023-01-18T23:24:38.867Z,7.38
2023-01-18T23:27:41.757Z,6.90
2023-01-18T23:30:44.778Z,4.30
2023-01-18T23:33:47.649Z,3.73
2023-01-18T23:36:51.338Z,4.40
2023-01-18T23:40:12.653Z,4.90
2023-01-18T23:43:34.036Z,4.80
2023-01-18T23:46:55.299Z,5.05
2023-01-18T23:50:17.393Z,3.57
2023-01-18T23:53:38.703Z,5.40
2023-01-18T23:56:41.871Z,5.22
2023-01-18T23:59:44.700Z,5.05
